sensor_id;sensor_type;location;lat;lon;timestamp;pressure;altitude;pressure_sealevel;temperature;humidity
59272;BME280;45043;51.068;7.026;2024-03-25T00:00:33;99613.66;;;6.37;64.25
59272;BME280;45043;51.068;7.026;2024-03-25T00:03:35;99611.03;;;6.37;63.93
59272;BME280;45043;51.068;7.026;2024-03-25T00:06:35;99609.22;;;6.38;63.72
59272;BME280;45043;51.068;7.026;2024-03-25T00:09:36;99610.38;;;6.35;64.22
59272;BME280;45043;51.068;7.026;2024-03-25T00:12:37;99607.41;;;6.38;64.36
59272;BME280;45043;51.068;7.026;2024-03-25T00:15:37;99602.50;;;6.35;64.08
59272;BME280;45043;51.068;7.026;2024-03-25T00:18:38;99606.13;;;6.34;63.99
59272;BME280;45043;51.068;7.026;2024-03-25T00:21:38;99615.81;;;6.34;64.02
59272;BME280;45043;51.068;7.026;2024-03-25T00:24:39;99616.63;;;6.34;63.99
59272;BME280;45043;51.068;7.026;2024-03-25T00:27:40;99602.84;;;6.32;64.22
59272;BME280;45043;51.068;7.026;2024-03-25T00:30:40;99610.56;;;6.34;64.42
59272;BME280;45043;51.068;7.026;2024-03-25T00:33:41;99621.88;;;6.34;64.44
59272;BME280;45043;51.068;7.026;2024-03-25T00:36:43;99608.09;;;6.32;64.69
59272;BME280;45043;51.068;7.026;2024-03-25T00:39:44;99610.06;;;6.30;64.06
59272;BME280;45043;51.068;7.026;2024-03-25T00:42:46;99593.34;;;6.23;64.21
59272;BME280;45043;51.068;7.026;2024-03-25T00:45:48;99592.38;;;6.24;64.38
59272;BME280;45043;51.068;7.026;2024-03-25T00:48:49;99601.03;;;6.24;64.07
59272;BME280;45043;51.068;7.026;2024-03-25T00:51:49;99594.03;;;6.25;64.37
59272;BME280;45043;51.068;7.026;2024-03-25T00:54:51;99598.59;;;6.23;64.43
59272;BME280;45043;51.068;7.026;2024-03-25T00:57:52;99603.19;;;6.21;64.42
59272;BME280;45043;51.068;7.026;2024-03-25T01:00:52;99594.84;;;6.17;64.84
59272;BME280;45043;51.068;7.026;2024-03-25T01:03:53;99601.22;;;6.23;64.79
59272;BME280;45043;51.068;7.026;2024-03-25T01:06:54;99604.50;;;6.33;64.75
59272;BME280;45043;51.068;7.026;2024-03-25T01:09:54;99592.03;;;6.27;64.46
59272;BME280;45043;51.068;7.026;2024-03-25T01:12:55;99597.94;;;6.29;64.40
59272;BME280;45043;51.068;7.026;2024-03-25T01:15:57;99600.41;;;6.22;64.66
59272;BME280;45043;51.068;7.026;2024-03-25T01:18:58;99606.00;;;6.11;65.20
59272;BME280;45043;51.068;7.026;2024-03-25T01:21:59;99589.78;;;6.08;65.00
59272;BME280;45043;51.068;7.026;2024-03-25T01:25:00;99599.25;;;6.17;65.36
59272;BME280;45043;51.068;7.026;2024-03-25T01:28:01;99593.06;;;6.18;65.23
59272;BME280;45043;51.068;7.026;2024-03-25T01:31:02;99598.78;;;6.13;65.55
59272;BME280;45043;51.068;7.026;2024-03-25T01:34:05;99599.94;;;6.11;65.39
59272;BME280;45043;51.068;7.026;2024-03-25T01:37:06;99602.38;;;6.12;65.32
59272;BME280;45043;51.068;7.026;2024-03-25T01:40:07;99612.06;;;6.12;65.38
59272;BME280;45043;51.068;7.026;2024-03-25T01:43:10;99620.59;;;6.06;65.77
59272;BME280;45043;51.068;7.026;2024-03-25T01:46:11;99609.78;;;6.00;65.90
59272;BME280;45043;51.068;7.026;2024-03-25T01:49:12;99612.22;;;6.02;65.97
59272;BME280;45043;51.068;7.026;2024-03-25T01:52:12;99596.50;;;6.02;66.08
59272;BME280;45043;51.068;7.026;2024-03-25T01:55:17;99596.81;;;5.99;66.07
59272;BME280;45043;51.068;7.026;2024-03-25T01:58:19;99597.00;;;5.97;66.27
59272;BME280;45043;51.068;7.026;2024-03-25T02:01:20;99598.66;;;6.07;65.75
59272;BME280;45043;51.068;7.026;2024-03-25T02:04:21;99607.97;;;6.09;65.70
59272;BME280;45043;51.068;7.026;2024-03-25T02:07:24;99608.78;;;6.10;65.77
59272;BME280;45043;51.068;7.026;2024-03-25T02:10:26;99606.81;;;6.12;66.21
59272;BME280;45043;51.068;7.026;2024-03-25T02:13:27;99602.56;;;6.11;65.96
59272;BME280;45043;51.068;7.026;2024-03-25T02:16:28;99597.16;;;6.04;66.22
59272;BME280;45043;51.068;7.026;2024-03-25T02:19:29;99597.81;;;6.06;65.61
59272;BME280;45043;51.068;7.026;2024-03-25T02:22:33;99619.94;;;6.04;65.84
59272;BME280;45043;51.068;7.026;2024-03-25T02:25:34;99625.84;;;5.97;65.89
59272;BME280;45043;51.068;7.026;2024-03-25T02:28:35;99620.75;;;5.88;66.50
59272;BME280;45043;51.068;7.026;2024-03-25T02:31:36;99622.56;;;5.87;66.43
59272;BME280;45043;51.068;7.026;2024-03-25T02:34:37;99618.47;;;5.85;66.34
59272;BME280;45043;51.068;7.026;2024-03-25T02:37:40;99617.31;;;5.79;66.03
59272;BME280;45043;51.068;7.026;2024-03-25T02:40:41;99619.94;;;5.71;66.15
59272;BME280;45043;51.068;7.026;2024-03-25T02:43:42;99619.94;;;5.71;66.69
59272;BME280;45043;51.068;7.026;2024-03-25T02:46:44;99618.63;;;5.67;66.72
59272;BME280;45043;51.068;7.026;2024-03-25T02:49:46;99621.56;;;5.72;66.43
59272;BME280;45043;51.068;7.026;2024-03-25T02:52:47;99614.69;;;5.71;66.48
59272;BME280;45043;51.068;7.026;2024-03-25T02:55:47;99619.63;;;5.74;66.48
59272;BME280;45043;51.068;7.026;2024-03-25T02:58:48;99612.72;;;5.73;66.17
59272;BME280;45043;51.068;7.026;2024-03-25T03:01:49;99606.34;;;5.75;65.90
59272;BME280;45043;51.068;7.026;2024-03-25T03:04:50;99612.41;;;5.76;66.50
59272;BME280;45043;51.068;7.026;2024-03-25T03:07:50;99609.78;;;5.76;66.69
59272;BME280;45043;51.068;7.026;2024-03-25T03:10:51;99603.88;;;5.82;66.51
59272;BME280;45043;51.068;7.026;2024-03-25T03:13:52;99607.19;;;5.84;66.24
59272;BME280;45043;51.068;7.026;2024-03-25T03:16:52;99602.88;;;5.91;66.05
59272;BME280;45043;51.068;7.026;2024-03-25T03:19:56;99599.13;;;5.94;65.83
59272;BME280;45043;51.068;7.026;2024-03-25T03:22:57;99602.41;;;5.96;66.00
59272;BME280;45043;51.068;7.026;2024-03-25T03:25:57;99594.38;;;5.97;65.89
59272;BME280;45043;51.068;7.026;2024-03-25T03:29:00;99599.28;;;6.00;66.01
59272;BME280;45043;51.068;7.026;2024-03-25T03:32:01;99591.75;;;5.97;65.48
59272;BME280;45043;51.068;7.026;2024-03-25T03:35:02;99588.47;;;6.04;65.73
59272;BME280;45043;51.068;7.026;2024-03-25T03:38:04;99590.94;;;6.05;65.74
59272;BME280;45043;51.068;7.026;2024-03-25T03:41:05;99583.53;;;6.09;65.24
59272;BME280;45043;51.068;7.026;2024-03-25T03:44:07;99597.97;;;6.13;65.10
59272;BME280;45043;51.068;7.026;2024-03-25T03:47:08;99590.28;;;6.11;65.08
59272;BME280;45043;51.068;7.026;2024-03-25T03:50:09;99592.38;;;6.16;65.29
59272;BME280;45043;51.068;7.026;2024-03-25T03:53:11;99596.81;;;6.15;65.54
59272;BME280;45043;51.068;7.026;2024-03-25T03:56:12;99601.06;;;6.16;65.58
59272;BME280;45043;51.068;7.026;2024-03-25T03:59:14;99595.69;;;6.18;65.39
59272;BME280;45043;51.068;7.026;2024-03-25T04:02:14;99602.88;;;6.16;65.51
59272;BME280;45043;51.068;7.026;2024-03-25T04:05:15;99597.44;;;6.17;65.07
59272;BME280;45043;51.068;7.026;2024-03-25T04:08:16;99600.22;;;6.24;65.21
59272;BME280;45043;51.068;7.026;2024-03-25T04:11:17;99599.09;;;6.26;65.10
59272;BME280;45043;51.068;7.026;2024-03-25T04:14:18;99597.63;;;6.24;64.89
59272;BME280;45043;51.068;7.026;2024-03-25T04:17:19;99608.44;;;6.21;65.22
59272;BME280;45043;51.068;7.026;2024-03-25T04:20:21;99596.63;;;6.17;65.17
59272;BME280;45043;51.068;7.026;2024-03-25T04:23:22;99600.59;;;6.13;64.85
59272;BME280;45043;51.068;7.026;2024-03-25T04:26:23;99598.78;;;6.13;65.25
59272;BME280;45043;51.068;7.026;2024-03-25T04:29:24;99604.50;;;6.17;64.82
59272;BME280;45043;51.068;7.026;2024-03-25T04:32:24;99597.78;;;6.22;65.25
59272;BME280;45043;51.068;7.026;2024-03-25T04:35:25;99599.72;;;6.29;64.55
59272;BME280;45043;51.068;7.026;2024-03-25T04:38:25;99595.97;;;6.31;65.00
59272;BME280;45043;51.068;7.026;2024-03-25T04:41:27;99589.91;;;6.31;64.55
59272;BME280;45043;51.068;7.026;2024-03-25T04:44:27;99596.63;;;6.33;64.20
59272;BME280;45043;51.068;7.026;2024-03-25T04:47:28;99595.97;;;6.31;64.28
59272;BME280;45043;51.068;7.026;2024-03-25T04:50:32;99602.84;;;6.32;64.32
59272;BME280;45043;51.068;7.026;2024-03-25T04:53:33;99594.97;;;6.32;64.27
59272;BME280;45043;51.068;7.026;2024-03-25T04:56:33;99603.69;;;6.33;64.21
59272;BME280;45043;51.068;7.026;2024-03-25T04:59:35;99604.50;;;6.33;64.35
59272;BME280;45043;51.068;7.026;2024-03-25T05:02:36;99603.69;;;6.33;64.08
59272;BME280;45043;51.068;7.026;2024-03-25T05:05:37;99603.69;;;6.33;63.92
59272;BME280;45043;51.068;7.026;2024-03-25T05:08:38;99606.31;;;6.33;63.57
59272;BME280;45043;51.068;7.026;2024-03-25T05:11:39;99608.25;;;6.31;63.97
59272;BME280;45043;51.068;7.026;2024-03-25T05:14:39;99605.81;;;6.29;63.89
59272;BME280;45043;51.068;7.026;2024-03-25T05:17:40;99611.06;;;6.29;63.86
59272;BME280;45043;51.068;7.026;2024-03-25T05:20:41;99615.28;;;6.55;64.51
59272;BME280;45043;51.068;7.026;2024-03-25T05:23:41;99615.03;;;6.81;64.31
59272;BME280;45043;51.068;7.026;2024-03-25T05:26:42;99617.72;;;7.04;63.77
59272;BME280;45043;51.068;7.026;2024-03-25T05:29:43;99616.34;;;7.16;63.61
59272;BME280;45043;51.068;7.026;2024-03-25T05:32:44;99613.66;;;7.24;63.59
59272;BME280;45043;51.068;7.026;2024-03-25T05:35:45;99620.19;;;7.36;63.29
59272;BME280;45043;51.068;7.026;2024-03-25T05:38:46;99621.22;;;7.50;62.84
59272;BME280;45043;51.068;7.026;2024-03-25T05:41:47;99617.44;;;7.76;63.19
59272;BME280;45043;51.068;7.026;2024-03-25T05:44:48;99609.97;;;8.02;62.97
59272;BME280;45043;51.068;7.026;2024-03-25T05:47:52;99611.50;;;8.34;62.70
59272;BME280;45043;51.068;7.026;2024-03-25T05:51:05;99605.34;;;8.57;61.73
59272;BME280;45043;51.068;7.026;2024-03-25T05:54:09;99608.16;;;8.55;61.11
59272;BME280;45043;51.068;7.026;2024-03-25T05:57:10;99609.69;;;8.64;60.85
59272;BME280;45043;51.068;7.026;2024-03-25T06:00:11;99612.53;;;8.78;60.72
59272;BME280;45043;51.068;7.026;2024-03-25T06:03:14;99616.41;;;8.97;59.93
59272;BME280;45043;51.068;7.026;2024-03-25T06:06:15;99615.66;;;9.03;59.49
59272;BME280;45043;51.068;7.026;2024-03-25T06:09:15;99620.47;;;9.14;59.39
59272;BME280;45043;51.068;7.026;2024-03-25T06:12:16;99628.09;;;9.24;58.60
59272;BME280;45043;51.068;7.026;2024-03-25T06:15:17;99616.44;;;9.33;58.28
59272;BME280;45043;51.068;7.026;2024-03-25T06:18:18;99621.38;;;9.43;57.78
59272;BME280;45043;51.068;7.026;2024-03-25T06:21:19;99627.78;;;9.55;56.93
59272;BME280;45043;51.068;7.026;2024-03-25T06:24:19;99613.09;;;9.46;56.69
59272;BME280;45043;51.068;7.026;2024-03-25T06:27:20;99620.50;;;9.35;56.21
59272;BME280;45043;51.068;7.026;2024-03-25T06:30:22;99623.00;;;9.22;55.69
59272;BME280;45043;51.068;7.026;2024-03-25T06:33:41;99623.50;;;9.32;55.74
59272;BME280;45043;51.068;7.026;2024-03-25T06:37:00;99621.63;;;9.26;55.57
59272;BME280;45043;51.068;7.026;2024-03-25T06:40:01;99616.47;;;9.18;55.41
59272;BME280;45043;51.068;7.026;2024-03-25T06:43:02;99619.94;;;9.19;55.22
59272;BME280;45043;51.068;7.026;2024-03-25T06:46:03;99618.91;;;9.20;55.07
59272;BME280;45043;51.068;7.026;2024-03-25T06:49:04;99619.97;;;9.25;55.04
59272;BME280;45043;51.068;7.026;2024-03-25T06:52:05;99620.75;;;9.19;55.10
59272;BME280;45043;51.068;7.026;2024-03-25T06:55:07;99626.25;;;9.24;54.90
59272;BME280;45043;51.068;7.026;2024-03-25T06:58:08;99624.88;;;9.28;54.86
59272;BME280;45043;51.068;7.026;2024-03-25T07:01:09;99633.56;;;9.22;54.80
59272;BME280;45043;51.068;7.026;2024-03-25T07:04:12;99624.44;;;9.25;54.85
59272;BME280;45043;51.068;7.026;2024-03-25T07:07:14;99630.16;;;9.28;54.56
59272;BME280;45043;51.068;7.026;2024-03-25T07:10:15;99633.47;;;9.15;54.83
59272;BME280;45043;51.068;7.026;2024-03-25T07:13:16;99634.66;;;8.98;54.97
59272;BME280;45043;51.068;7.026;2024-03-25T07:16:16;99633.91;;;9.19;55.08
59272;BME280;45043;51.068;7.026;2024-03-25T07:19:19;99632.41;;;9.31;54.47
59272;BME280;45043;51.068;7.026;2024-03-25T07:22:19;99632.69;;;9.36;54.09
59272;BME280;45043;51.068;7.026;2024-03-25T07:25:20;99635.94;;;9.38;54.52
59272;BME280;45043;51.068;7.026;2024-03-25T07:28:21;99637.38;;;9.77;53.85
59272;BME280;45043;51.068;7.026;2024-03-25T07:31:22;99641.38;;;9.95;53.17
59272;BME280;45043;51.068;7.026;2024-03-25T07:34:23;99627.50;;;10.14;53.18
59272;BME280;45043;51.068;7.026;2024-03-25T07:37:23;99638.25;;;10.34;52.69
59272;BME280;45043;51.068;7.026;2024-03-25T07:40:24;99626.59;;;10.50;52.33
59272;BME280;45043;51.068;7.026;2024-03-25T07:43:24;99622.66;;;10.74;52.04
59272;BME280;45043;51.068;7.026;2024-03-25T07:46:25;99623.69;;;10.79;51.88
59272;BME280;45043;51.068;7.026;2024-03-25T07:49:26;99625.88;;;10.69;51.70
59272;BME280;45043;51.068;7.026;2024-03-25T07:52:27;99621.59;;;10.68;51.43
59272;BME280;45043;51.068;7.026;2024-03-25T07:55:28;99626.59;;;10.91;51.17
59272;BME280;45043;51.068;7.026;2024-03-25T07:58:30;99630.34;;;11.10;50.72
59272;BME280;45043;51.068;7.026;2024-03-25T08:01:31;99622.66;;;11.15;50.59
59272;BME280;45043;51.068;7.026;2024-03-25T08:04:32;99627.34;;;11.20;50.23
59272;BME280;45043;51.068;7.026;2024-03-25T08:07:32;99632.44;;;11.28;50.13
59272;BME280;45043;51.068;7.026;2024-03-25T08:10:33;99626.63;;;10.98;50.48
59272;BME280;45043;51.068;7.026;2024-03-25T08:33:50;99620.78;;;11.84;48.56
59272;BME280;45043;51.068;7.026;2024-03-25T08:36:51;99615.03;;;11.67;47.60
59272;BME280;45043;51.068;7.026;2024-03-25T08:39:51;99615.38;;;11.30;47.48
59272;BME280;45043;51.068;7.026;2024-03-25T08:42:52;99629.91;;;11.00;47.59
59272;BME280;45043;51.068;7.026;2024-03-25T08:45:53;99625.78;;;10.91;47.28
59272;BME280;45043;51.068;7.026;2024-03-25T08:48:54;99619.50;;;10.57;47.39
59272;BME280;45043;51.068;7.026;2024-03-25T08:51:55;99625.72;;;10.43;47.55
59272;BME280;45043;51.068;7.026;2024-03-25T08:54:56;99627.50;;;10.14;47.38
59272;BME280;45043;51.068;7.026;2024-03-25T08:57:58;99624.03;;;10.07;47.55
59272;BME280;45043;51.068;7.026;2024-03-25T09:00:59;99622.38;;;10.06;47.31
59272;BME280;45043;51.068;7.026;2024-03-25T09:03:59;99614.09;;;9.87;47.65
59272;BME280;45043;51.068;7.026;2024-03-25T09:06:59;99613.56;;;9.92;47.65
59272;BME280;45043;51.068;7.026;2024-03-25T09:10:00;99616.13;;;10.07;47.29
59272;BME280;45043;51.068;7.026;2024-03-25T09:13:19;99620.13;;;10.31;46.48
59272;BME280;45043;51.068;7.026;2024-03-25T09:16:19;99612.56;;;10.49;46.17
59272;BME280;45043;51.068;7.026;2024-03-25T09:19:20;99609.72;;;10.51;46.35
59272;BME280;45043;51.068;7.026;2024-03-25T09:22:21;99615.44;;;10.54;46.29
59272;BME280;45043;51.068;7.026;2024-03-25T09:25:23;99620.41;;;10.71;45.81
59272;BME280;45043;51.068;7.026;2024-03-25T09:28:24;99612.78;;;10.96;45.36
59272;BME280;45043;51.068;7.026;2024-03-25T09:31:24;99609.97;;;10.97;45.05
59272;BME280;45043;51.068;7.026;2024-03-25T09:34:27;99592.94;;;11.13;46.43
59272;BME280;45043;51.068;7.026;2024-03-25T09:37:27;99597.88;;;11.29;46.00
59272;BME280;45043;51.068;7.026;2024-03-25T09:40:28;99598.94;;;11.55;45.80
59272;BME280;45043;51.068;7.026;2024-03-25T09:43:49;99596.78;;;11.85;45.24
59272;BME280;45043;51.068;7.026;2024-03-25T09:47:09;99596.34;;;11.95;44.55
59272;BME280;45043;51.068;7.026;2024-03-25T09:50:14;99596.97;;;11.97;44.16
59272;BME280;45043;51.068;7.026;2024-03-25T09:53:20;99593.09;;;12.19;44.00
59272;BME280;45043;51.068;7.026;2024-03-25T09:56:21;99587.19;;;12.04;43.90
59272;BME280;45043;51.068;7.026;2024-03-25T09:59:22;99584.94;;;12.01;43.65
59272;BME280;45043;51.068;7.026;2024-03-25T10:02:28;99581.28;;;12.02;43.32
59272;BME280;45043;51.068;7.026;2024-03-25T10:05:30;99575.56;;;11.98;43.52
59272;BME280;45043;51.068;7.026;2024-03-25T10:08:31;99571.50;;;11.96;43.04
59272;BME280;45043;51.068;7.026;2024-03-25T10:11:35;99571.09;;;11.99;42.75
59272;BME280;45043;51.068;7.026;2024-03-25T10:14:36;99571.09;;;11.99;42.57
59272;BME280;45043;51.068;7.026;2024-03-25T10:17:40;99568.22;;;12.07;42.37
59272;BME280;45043;51.068;7.026;2024-03-25T10:20:48;99558.66;;;12.13;41.92
59272;BME280;45043;51.068;7.026;2024-03-25T10:23:56;99544.78;;;12.30;41.79
59272;BME280;45043;51.068;7.026;2024-03-25T10:26:58;99549.84;;;12.45;41.71
59272;BME280;45043;51.068;7.026;2024-03-25T10:30:00;99545.94;;;12.54;41.09
59272;BME280;45043;51.068;7.026;2024-03-25T10:33:04;99539.38;;;12.64;40.82
59272;BME280;45043;51.068;7.026;2024-03-25T10:36:05;99542.06;;;12.57;41.40
59272;BME280;45043;51.068;7.026;2024-03-25T10:39:08;99531.41;;;12.70;41.15
59272;BME280;45043;51.068;7.026;2024-03-25T10:42:13;99530.91;;;12.87;40.97
59272;BME280;45043;51.068;7.026;2024-03-25T10:45:15;99517.41;;;13.01;40.40
59272;BME280;45043;51.068;7.026;2024-03-25T10:48:28;99512.28;;;13.07;40.12
59272;BME280;45043;51.068;7.026;2024-03-25T10:51:30;99510.63;;;13.12;40.32
59272;BME280;45043;51.068;7.026;2024-03-25T10:54:33;99505.06;;;13.20;40.17
59272;BME280;45043;51.068;7.026;2024-03-25T10:57:36;99490.69;;;13.35;40.18
59272;BME280;45043;51.068;7.026;2024-03-25T11:00:37;99490.78;;;13.46;40.05
59272;BME280;45043;51.068;7.026;2024-03-25T11:03:38;99495.63;;;13.56;39.65
59272;BME280;45043;51.068;7.026;2024-03-25T11:06:38;99487.75;;;13.68;39.95
59272;BME280;45043;51.068;7.026;2024-03-25T11:09:40;99482.41;;;13.74;39.44
59272;BME280;45043;51.068;7.026;2024-03-25T11:12:42;99483.03;;;13.70;39.01
59272;BME280;45043;51.068;7.026;2024-03-25T11:15:44;99483.88;;;13.70;38.66
59272;BME280;45043;51.068;7.026;2024-03-25T11:18:51;99481.31;;;13.57;38.62
59272;BME280;45043;51.068;7.026;2024-03-25T11:21:52;99471.84;;;13.43;38.78
59272;BME280;45043;51.068;7.026;2024-03-25T11:24:54;99471.06;;;13.36;38.76
59272;BME280;45043;51.068;7.026;2024-03-25T11:27:55;99465.63;;;13.31;38.48
59272;BME280;45043;51.068;7.026;2024-03-25T11:30:56;99461.34;;;13.30;38.47
59272;BME280;45043;51.068;7.026;2024-03-25T11:33:56;99458.47;;;13.31;38.49
59272;BME280;45043;51.068;7.026;2024-03-25T11:36:58;99455.13;;;13.42;38.04
59272;BME280;45043;51.068;7.026;2024-03-25T11:40:03;99446.53;;;13.40;37.97
59272;BME280;45043;51.068;7.026;2024-03-25T11:43:04;99444.28;;;13.44;38.01
59272;BME280;45043;51.068;7.026;2024-03-25T11:46:05;99442.16;;;13.27;38.29
59272;BME280;45043;51.068;7.026;2024-03-25T11:49:14;99443.56;;;13.05;37.80
59272;BME280;45043;51.068;7.026;2024-03-25T11:52:15;99440.06;;;13.11;37.45
59272;BME280;45043;51.068;7.026;2024-03-25T11:55:17;99426.59;;;13.38;36.78
59272;BME280;45043;51.068;7.026;2024-03-25T11:58:19;99425.59;;;13.57;36.77
59272;BME280;45043;51.068;7.026;2024-03-25T12:01:20;99412.09;;;13.59;36.82
59272;BME280;45043;51.068;7.026;2024-03-25T12:04:21;99403.63;;;13.68;36.52
59272;BME280;45043;51.068;7.026;2024-03-25T12:07:23;99407.59;;;13.78;36.13
59272;BME280;45043;51.068;7.026;2024-03-25T12:10:24;99408.81;;;13.63;34.56
59272;BME280;45043;51.068;7.026;2024-03-25T12:13:44;99401.94;;;13.06;32.22
59272;BME280;45043;51.068;7.026;2024-03-25T12:16:44;99394.22;;;13.04;32.50
59272;BME280;45043;51.068;7.026;2024-03-25T12:19:58;99395.75;;;13.18;32.12
59272;BME280;45043;51.068;7.026;2024-03-25T12:23:02;99386.91;;;13.24;32.06
59272;BME280;45043;51.068;7.026;2024-03-25T12:26:04;99385.94;;;13.62;31.56
59272;BME280;45043;51.068;7.026;2024-03-25T12:29:05;99383.72;;;13.96;31.34
59272;BME280;45043;51.068;7.026;2024-03-25T12:32:09;99375.47;;;13.86;31.63
59272;BME280;45043;51.068;7.026;2024-03-25T12:35:13;99364.09;;;13.42;31.92
59272;BME280;45043;51.068;7.026;2024-03-25T12:38:30;99360.88;;;13.58;32.19
59272;BME280;45043;51.068;7.026;2024-03-25T12:41:35;99357.19;;;13.78;32.08
59272;BME280;45043;51.068;7.026;2024-03-25T12:44:36;99347.66;;;13.88;31.73
59272;BME280;45043;51.068;7.026;2024-03-25T12:47:38;99341.97;;;14.21;32.08
59272;BME280;45043;51.068;7.026;2024-03-25T12:50:39;99344.56;;;14.40;31.21
59272;BME280;45043;51.068;7.026;2024-03-25T12:53:41;99346.66;;;14.38;31.15
59272;BME280;45043;51.068;7.026;2024-03-25T12:56:41;99337.16;;;14.30;31.51
59272;BME280;45043;51.068;7.026;2024-03-25T12:59:43;99341.66;;;14.30;31.37
59272;BME280;45043;51.068;7.026;2024-03-25T13:02:44;99322.00;;;14.73;31.75
59272;BME280;45043;51.068;7.026;2024-03-25T13:05:45;99335.56;;;15.06;31.28
59272;BME280;45043;51.068;7.026;2024-03-25T13:08:45;99331.31;;;15.05;30.67
59272;BME280;45043;51.068;7.026;2024-03-25T13:11:46;99316.50;;;15.21;30.30
59272;BME280;45043;51.068;7.026;2024-03-25T13:14:47;99308.88;;;15.25;29.36
59272;BME280;45043;51.068;7.026;2024-03-25T13:17:48;99312.09;;;15.03;29.22
59272;BME280;45043;51.068;7.026;2024-03-25T13:20:50;99297.97;;;15.14;29.16
59272;BME280;45043;51.068;7.026;2024-03-25T13:23:52;99297.31;;;15.19;29.69
59272;BME280;45043;51.068;7.026;2024-03-25T13:26:52;99290.13;;;15.43;28.91
59272;BME280;45043;51.068;7.026;2024-03-25T13:29:53;99280.81;;;15.69;28.89
59272;BME280;45043;51.068;7.026;2024-03-25T13:32:54;99268.22;;;15.93;27.95
59272;BME280;45043;51.068;7.026;2024-03-25T13:35:55;99258.00;;;16.19;27.18
59272;BME280;45043;51.068;7.026;2024-03-25T13:38:56;99268.66;;;16.47;26.75
59272;BME280;45043;51.068;7.026;2024-03-25T13:41:57;99253.53;;;16.70;26.50
59272;BME280;45043;51.068;7.026;2024-03-25T13:44:57;99243.19;;;16.90;26.34
59272;BME280;45043;51.068;7.026;2024-03-25T13:47:58;99244.00;;;16.91;26.08
59272;BME280;45043;51.068;7.026;2024-03-25T13:50:59;99240.22;;;16.70;26.05
59272;BME280;45043;51.068;7.026;2024-03-25T13:54:00;99230.50;;;16.80;26.19
59272;BME280;45043;51.068;7.026;2024-03-25T13:57:02;99233.03;;;17.09;25.76
59272;BME280;45043;51.068;7.026;2024-03-25T14:00:04;99230.91;;;17.50;24.94
59272;BME280;45043;51.068;7.026;2024-03-25T14:03:12;99220.22;;;17.72;24.71
59272;BME280;45043;51.068;7.026;2024-03-25T14:06:13;99220.75;;;18.23;24.59
59272;BME280;45043;51.068;7.026;2024-03-25T14:09:26;99198.66;;;18.75;24.12
59272;BME280;45043;51.068;7.026;2024-03-25T14:12:27;99197.25;;;19.10;23.91
59272;BME280;45043;51.068;7.026;2024-03-25T14:15:28;99182.94;;;19.41;23.67
59272;BME280;45043;51.068;7.026;2024-03-25T14:18:28;99184.94;;;19.87;23.09
59272;BME280;45043;51.068;7.026;2024-03-25T14:21:32;99189.50;;;20.17;22.87
59272;BME280;45043;51.068;7.026;2024-03-25T14:24:33;99175.00;;;19.87;22.86
59272;BME280;45043;51.068;7.026;2024-03-25T14:27:34;99173.09;;;19.77;23.41
59272;BME280;45043;51.068;7.026;2024-03-25T14:30:35;99169.13;;;20.36;22.81
59272;BME280;45043;51.068;7.026;2024-03-25T14:33:36;99164.25;;;20.74;22.77
59272;BME280;45043;51.068;7.026;2024-03-25T14:36:36;99167.31;;;21.12;21.34
59272;BME280;45043;51.068;7.026;2024-03-25T14:39:37;99170.00;;;21.17;21.29
59272;BME280;45043;51.068;7.026;2024-03-25T14:42:38;99158.06;;;20.84;21.36
59272;BME280;45043;51.068;7.026;2024-03-25T14:45:39;99152.34;;;21.01;21.36
59272;BME280;45043;51.068;7.026;2024-03-25T14:48:39;99148.50;;;21.27;21.21
59272;BME280;45043;51.068;7.026;2024-03-25T14:51:40;99145.59;;;21.68;21.13
59272;BME280;45043;51.068;7.026;2024-03-25T14:54:42;99141.44;;;21.81;21.06
59272;BME280;45043;51.068;7.026;2024-03-25T14:57:42;99126.47;;;22.04;20.45
59272;BME280;45043;51.068;7.026;2024-03-25T15:00:43;99127.28;;;22.38;20.48
59272;BME280;45043;51.068;7.026;2024-03-25T15:03:44;99124.66;;;22.81;20.16
59272;BME280;45043;51.068;7.026;2024-03-25T15:06:44;99115.94;;;23.32;19.57
59272;BME280;45043;51.068;7.026;2024-03-25T15:09:46;99110.34;;;23.67;19.36
59272;BME280;45043;51.068;7.026;2024-03-25T15:12:46;99106.16;;;23.60;18.77
59272;BME280;45043;51.068;7.026;2024-03-25T15:15:48;99102.41;;;23.75;18.42
59272;BME280;45043;51.068;7.026;2024-03-25T15:18:50;99100.09;;;24.01;18.66
59272;BME280;45043;51.068;7.026;2024-03-25T15:21:51;99087.72;;;24.14;18.20
59272;BME280;45043;51.068;7.026;2024-03-25T15:24:52;99084.19;;;24.60;17.85
59272;BME280;45043;51.068;7.026;2024-03-25T15:27:53;99081.75;;;25.95;16.78
59272;BME280;45043;51.068;7.026;2024-03-25T15:30:54;99069.66;;;28.67;14.27
59272;BME280;45043;51.068;7.026;2024-03-25T15:33:56;99063.34;;;32.27;12.50
59272;BME280;45043;51.068;7.026;2024-03-25T15:36:57;99057.47;;;34.88;10.71
59272;BME280;45043;51.068;7.026;2024-03-25T15:39:58;99046.63;;;37.13;9.13
59272;BME280;45043;51.068;7.026;2024-03-25T15:42:59;99048.88;;;38.27;8.82
59272;BME280;45043;51.068;7.026;2024-03-25T15:46:03;99045.56;;;39.04;8.30
59272;BME280;45043;51.068;7.026;2024-03-25T15:49:05;99045.38;;;39.50;7.69
59272;BME280;45043;51.068;7.026;2024-03-25T15:52:06;99029.44;;;39.69;7.78
59272;BME280;45043;51.068;7.026;2024-03-25T15:55:06;99027.50;;;40.18;7.33
59272;BME280;45043;51.068;7.026;2024-03-25T15:58:09;99022.19;;;39.89;7.23
59272;BME280;45043;51.068;7.026;2024-03-25T16:01:10;99021.59;;;39.64;7.68
59272;BME280;45043;51.068;7.026;2024-03-25T16:04:11;99025.06;;;39.75;7.23
59272;BME280;45043;51.068;7.026;2024-03-25T16:07:12;99017.03;;;39.32;7.60
59272;BME280;45043;51.068;7.026;2024-03-25T16:10:12;99008.44;;;39.16;7.33
59272;BME280;45043;51.068;7.026;2024-03-25T16:13:13;99010.03;;;39.09;6.81
59272;BME280;45043;51.068;7.026;2024-03-25T16:16:15;99001.78;;;38.95;7.39
59272;BME280;45043;51.068;7.026;2024-03-25T16:19:16;98997.56;;;38.58;7.44
59272;BME280;45043;51.068;7.026;2024-03-25T16:22:16;99002.75;;;37.74;7.65
59272;BME280;45043;51.068;7.026;2024-03-25T16:25:17;98985.97;;;36.85;7.69
59272;BME280;45043;51.068;7.026;2024-03-25T16:28:18;98992.88;;;35.61;8.63